Clayton, New Mexico
Current Conditions -  °F | °C
As of 9:55 PM on Friday 21 Nov 2014 (Local Time) from KCAO Reporting Station
Clear Clear  
Wind Chill: 38°   Ceiling: Unl
Heat Index: 43°   Visibility: 10mi
Dew Point: 25°   Wind: 9mph
Humidity: 49%   Direction: 250°WSW
Pressure: 30"   Gusts: NA
Location:  36.45°N, 103.18°W
Report Text: KCAO 220455Z AUTO 25008KT 10SM CLR 06/M04 A3000 RMK AO2 SLP139 T00611039
Loading
Personal Weather Stations






























Interactive Weather Map New forecast layout! Learn more

10-Day Weather Forecast

Advertisements
Track Severe Weather on mobile